Time;durP1;ratioP1;P1;durP2;ratioP2;P2;SDS_P1;SDS_P2;PMS_P1;PMS_P2;Temp;Humidity;BMP_temperature;BMP_pressure;BME280_temperature;BME280_humidity;BME280_pressure;Samples;Min_cycle;Max_cycle;Signal;HPM_P1;HPM_P2
2023/10/10 00:00:54;;;;;;;359.07;138.07;;;;;17.00;97200.00;;;;5027866;28;20204;-64
2023/10/10 00:03:45;;;;;;;367.23;141.80;;;;;17.10;97208.00;;;;5028830;28;20331;-64
2023/10/10 00:06:38;;;;;;;359.63;136.60;;;;;17.10;97215.00;;;;5028397;28;20225;-65
2023/10/10 00:09:27;;;;;;;361.40;140.77;;;;;16.50;97208.00;;;;5028270;28;20205;-65
2023/10/10 00:12:19;;;;;;;364.33;155.23;;;;;16.90;97212.00;;;;5028876;28;20277;-64
2023/10/10 00:15:23;;;;;;;374.17;146.03;;;;;17.00;97202.00;;;;5027801;28;20312;-65
2023/10/10 00:18:13;;;;;;;362.87;143.40;;;;;17.10;97199.00;;;;5028238;28;20232;-65
2023/10/10 00:21:09;;;;;;;353.33;136.33;;;;;17.20;97196.00;;;;5021025;28;20196;-65
2023/10/10 00:23:59;;;;;;;360.00;139.70;;;;;17.00;97181.00;;;;5029005;28;20194;-65
2023/10/10 00:26:48;;;;;;;363.73;148.53;;;;;16.80;97180.00;;;;5028157;28;20227;-65
2023/10/10 00:29:40;;;;;;;364.43;145.43;;;;;16.70;97204.00;;;;5026641;28;20586;-64
2023/10/10 00:32:35;;;;;;;362.93;146.17;;;;;16.80;97212.00;;;;5026897;28;20209;-65
2023/10/10 00:35:27;;;;;;;364.40;140.40;;;;;16.70;97213.00;;;;5024440;28;20705;-64
2023/10/10 00:38:24;;;;;;;363.20;146.37;;;;;16.90;97219.00;;;;5024871;28;20231;-65
2023/10/10 00:41:15;;;;;;;362.37;141.50;;;;;17.10;97233.00;;;;5025650;28;20606;-64
2023/10/10 00:44:04;;;;;;;361.43;140.57;;;;;17.10;97231.00;;;;5028441;28;20228;-65
2023/10/10 00:46:56;;;;;;;359.40;136.07;;;;;17.20;97219.00;;;;5028063;28;20755;-65
2023/10/10 00:49:46;;;;;;;369.03;152.00;;;;;17.30;97204.00;;;;5021549;28;20202;-65
2023/10/10 00:52:38;;;;;;;362.07;145.50;;;;;17.30;97193.00;;;;5022807;28;20697;-65
2023/10/10 00:55:33;;;;;;;366.97;143.87;;;;;17.00;97189.00;;;;5023384;28;20608;-65
2023/10/10 00:58:24;;;;;;;366.40;153.97;;;;;16.90;97187.00;;;;5022076;28;20229;-65
2023/10/10 01:01:14;;;;;;;360.10;144.73;;;;;17.20;97189.00;;;;5025583;28;20201;-65
2023/10/10 01:04:05;;;;;;;364.17;148.97;;;;;17.30;97183.00;;;;5022584;28;20208;-65
2023/10/10 01:06:55;;;;;;;362.30;144.70;;;;;17.30;97190.00;;;;5027260;28;20279;-65
2023/10/10 01:09:55;;;;;;;361.93;143.93;;;;;16.90;97186.00;;;;5029414;28;20197;-65
2023/10/10 01:12:46;;;;;;;366.40;144.97;;;;;16.60;97182.00;;;;5026643;28;20224;-65
2023/10/10 01:15:35;;;;;;;364.83;148.47;;;;;16.70;97188.00;;;;5025404;28;20630;-65
2023/10/10 01:18:25;;;;;;;366.37;156.27;;;;;16.80;97183.00;;;;5021975;28;20209;-65
2023/10/10 01:21:20;;;;;;;363.47;145.73;;;;;17.30;97183.00;;;;5023831;28;20205;-65
2023/10/10 01:24:11;;;;;;;358.00;150.70;;;;;17.20;97176.00;;;;5025369;28;20699;-66
2023/10/10 01:27:14;;;;;;;366.43;153.03;;;;;17.20;97185.00;;;;5023257;28;20217;-66
2023/10/10 01:30:17;;;;;;;367.33;150.27;;;;;17.10;97191.00;;;;5024411;28;20200;-66
2023/10/10 01:33:06;;;;;;;360.57;143.83;;;;;17.10;97192.00;;;;5026793;28;20694;-67
2023/10/10 01:35:56;;;;;;;360.60;140.53;;;;;17.20;97197.00;;;;5027894;28;20282;-66
2023/10/10 01:39:07;;;;;;;371.43;160.60;;;;;17.30;97189.00;;;;5028706;28;20225;-66
2023/10/10 01:41:58;;;;;;;361.23;141.37;;;;;17.40;97199.00;;;;5021557;28;20219;-66
2023/10/10 01:44:47;;;;;;;365.37;147.57;;;;;17.30;97193.00;;;;5026676;28;20205;-66
2023/10/10 01:47:39;;;;;;;372.43;161.87;;;;;17.40;97183.00;;;;5017842;28;20213;-67
2023/10/10 01:50:30;;;;;;;362.27;146.67;;;;;17.50;97182.00;;;;5023495;28;20193;-67
2023/10/10 01:53:19;;;;;;;365.47;149.70;;;;;17.40;97187.00;;;;5027456;28;20208;-66
2023/10/10 01:56:11;;;;;;;358.83;143.97;;;;;17.20;97179.00;;;;5022210;28;20228;-66
2023/10/10 01:59:03;;;;;;;352.47;135.77;;;;;17.30;97185.00;;;;5022970;28;20299;-66
2023/10/10 02:01:53;;;;;;;363.33;148.77;;;;;17.00;97173.00;;;;5027231;28;20231;-66
2023/10/10 02:04:44;;;;;;;367.93;151.87;;;;;17.00;97179.00;;;;5025856;28;20749;-66
2023/10/10 02:07:33;;;;;;;357.60;142.90;;;;;17.20;97174.00;;;;5030035;28;20212;-66
2023/10/10 02:10:26;;;;;;;361.50;145.73;;;;;17.00;97176.00;;;;5028953;28;20200;-66
2023/10/10 02:13:17;;;;;;;351.67;134.83;;;;;17.10;97183.00;;;;5031046;28;20208;-67
2023/10/10 02:16:06;;;;;;;359.30;139.87;;;;;17.10;97173.00;;;;5026735;28;20228;-67
2023/10/10 02:18:59;;;;;;;355.57;140.10;;;;;17.00;97161.00;;;;5026055;28;20201;-67
2023/10/10 02:21:51;;;;;;;357.13;137.43;;;;;16.60;97163.00;;;;5030687;28;20227;-67
2023/10/10 02:24:41;;;;;;;357.57;134.37;;;;;16.40;97163.00;;;;5029339;28;20208;-66
2023/10/10 02:27:32;;;;;;;367.80;143.70;;;;;16.30;97169.00;;;;5030996;28;20232;-66
2023/10/10 02:30:34;;;;;;;359.50;136.93;;;;;16.10;97169.00;;;;5030264;28;20220;-67
2023/10/10 02:33:31;;;;;;;361.03;139.30;;;;;16.00;97171.00;;;;5028453;28;20213;-66
2023/10/10 02:36:30;;;;;;;362.67;147.07;;;;;15.50;97173.00;;;;5031380;28;20225;-67
2023/10/10 02:39:27;;;;;;;355.77;135.90;;;;;15.70;97175.00;;;;5029635;28;20290;-67
2023/10/10 02:42:19;;;;;;;362.30;136.20;;;;;16.30;97179.00;;;;5029000;28;20202;-66
2023/10/10 02:45:13;;;;;;;356.70;131.60;;;;;16.50;97183.00;;;;5026976;28;20225;-66
2023/10/10 02:48:07;;;;;;;357.93;133.17;;;;;16.20;97192.00;;;;5032840;28;20200;-66
2023/10/10 02:51:02;;;;;;;359.03;134.03;;;;;16.20;97185.00;;;;5031573;28;20706;-66
2023/10/10 02:53:51;;;;;;;363.63;139.27;;;;;15.70;97167.00;;;;5029373;28;20205;-67
2023/10/10 02:56:43;;;;;;;366.17;148.83;;;;;16.20;97170.00;;;;5027203;28;20229;-66
2023/10/10 02:59:37;;;;;;;362.93;138.93;;;;;16.10;97175.00;;;;5030709;28;20762;-66
2023/10/10 03:02:30;;;;;;;357.53;135.60;;;;;15.80;97183.00;;;;5031634;28;20210;-67
2023/10/10 03:05:38;;;;;;;363.83;138.33;;;;;15.70;97171.00;;;;5029826;28;20228;-66
2023/10/10 03:08:37;;;;;;;361.67;130.40;;;;;15.50;97178.00;;;;5029605;28;20670;-66
2023/10/10 03:11:39;;;;;;;362.20;134.33;;;;;15.30;97180.00;;;;5030432;28;20197;-66
2023/10/10 03:14:29;;;;;;;364.03;135.97;;;;;15.80;97182.00;;;;5026506;28;20208;-66
2023/10/10 03:17:42;;;;;;;367.80;141.37;;;;;15.90;97175.00;;;;5023548;28;20339;-66
2023/10/10 03:20:48;;;;;;;358.77;130.27;;;;;15.70;97181.00;;;;5030865;28;20232;-66
2023/10/10 03:23:52;;;;;;;354.80;127.73;;;;;15.90;97177.00;;;;5030785;28;20212;-66
2023/10/10 03:27:00;;;;;;;361.07;129.73;;;;;15.80;97189.00;;;;5027012;28;20228;-66
2023/10/10 03:29:50;;;;;;;360.20;133.83;;;;;15.40;97174.00;;;;5028356;28;20201;-67
2023/10/10 03:32:59;;;;;;;361.80;132.70;;;;;16.00;97183.00;;;;5024955;28;20201;-66
2023/10/10 03:35:58;;;;;;;365.83;136.33;;;;;15.90;97182.00;;;;5029084;28;20694;-66
2023/10/10 05:25:23;;;;;;;363.67;130.53;;;;;15.10;97216.00;;;;4990853;28;20608;-66
2023/10/10 05:28:12;;;;;;;356.67;122.23;;;;;15.00;97216.00;;;;5024909;28;20247;-66
2023/10/10 05:31:02;;;;;;;356.00;122.17;;;;;14.90;97224.00;;;;5025548;28;20201;-66
2023/10/10 05:33:51;;;;;;;361.10;124.87;;;;;14.90;97233.00;;;;5016913;28;20231;-66
2023/10/10 05:36:41;;;;;;;354.37;117.67;;;;;14.80;97226.00;;;;5025459;28;20225;-66
2023/10/10 05:39:32;;;;;;;347.63;111.97;;;;;14.90;97241.00;;;;5026358;28;20199;-66
2023/10/10 05:42:26;;;;;;;353.60;121.97;;;;;15.20;97230.00;;;;5022643;28;20205;-66
2023/10/10 05:45:15;;;;;;;362.27;130.23;;;;;15.00;97225.00;;;;5019402;28;20220;-66
2023/10/10 05:48:05;;;;;;;356.77;129.30;;;;;15.00;97236.00;;;;5026971;28;20263;-67
2023/10/10 05:50:54;;;;;;;360.77;128.03;;;;;15.30;97245.00;;;;5025187;28;20197;-67
2023/10/10 05:53:46;;;;;;;362.43;130.80;;;;;15.20;97241.00;;;;5018819;28;20671;-67
2023/10/10 05:56:37;;;;;;;355.70;122.30;;;;;15.20;97248.00;;;;5024927;28;20600;-67
2023/10/10 05:59:28;;;;;;;361.67;130.27;;;;;15.50;97247.00;;;;5021477;28;20206;-66
2023/10/10 06:02:17;;;;;;;358.87;125.27;;;;;15.70;97266.00;;;;5024348;28;20217;-66
2023/10/10 06:05:08;;;;;;;363.50;133.33;;;;;15.90;97259.00;;;;5024119;28;20236;-66
2023/10/10 06:07:58;;;;;;;364.70;133.97;;;;;15.90;97274.00;;;;5020744;28;20213;-67
2023/10/10 06:10:48;;;;;;;364.20;132.63;;;;;15.70;97265.00;;;;5022285;28;20209;-67
2023/10/10 06:13:39;;;;;;;354.53;126.60;;;;;16.10;97269.00;;;;5024267;28;20212;-67
2023/10/10 06:16:30;;;;;;;356.87;131.13;;;;;16.30;97267.00;;;;5027478;28;20263;-67
2023/10/10 06:19:20;;;;;;;363.90;138.43;;;;;16.30;97283.00;;;;5021621;28;20209;-67
2023/10/10 06:22:14;;;;;;;357.87;133.20;;;;;16.00;97282.00;;;;5017024;28;20228;-66
2023/10/10 06:25:05;;;;;;;366.37;139.77;;;;;16.20;97277.00;;;;5019399;28;20579;-66
2023/10/10 06:27:57;;;;;;;364.37;136.00;;;;;16.10;97274.00;;;;5021628;28;20205;-67
2023/10/10 06:30:48;;;;;;;365.93;140.20;;;;;16.00;97281.00;;;;5020474;28;20201;-67
2023/10/10 06:33:40;;;;;;;360.17;138.00;;;;;16.40;97284.00;;;;5024669;28;20720;-67
2023/10/10 06:36:37;;;;;;;370.87;140.00;;;;;16.70;97286.00;;;;5015718;28;20228;-67
2023/10/10 06:39:32;;;;;;;364.63;140.10;;;;;16.80;97283.00;;;;5020161;28;20210;-67
2023/10/10 06:42:27;;;;;;;363.50;141.50;;;;;16.60;97296.00;;;;5019584;28;20225;-67
2023/10/10 06:45:21;;;;;;;369.87;141.77;;;;;16.60;97295.00;;;;5024258;28;20230;-67
2023/10/10 06:48:11;;;;;;;360.37;136.10;;;;;16.70;97290.00;;;;5020895;28;20586;-67
2023/10/10 06:51:01;;;;;;;362.83;137.13;;;;;16.80;97301.00;;;;5021970;28;20206;-65
2023/10/10 06:53:54;;;;;;;365.30;142.50;;;;;17.00;97300.00;;;;5018603;28;20678;-66
2023/10/10 06:56:53;;;;;;;361.20;137.00;;;;;17.10;97306.00;;;;5028152;28;20285;-65
2023/10/10 06:59:43;;;;;;;360.00;138.80;;;;;17.20;97313.00;;;;5027951;28;20212;-67
2023/10/10 07:02:39;;;;;;;358.80;136.27;;;;;17.30;97311.00;;;;5031880;28;20714;-66
2023/10/10 07:05:33;;;;;;;371.17;150.60;;;;;17.50;97325.00;;;;5028747;28;20225;-66
2023/10/10 07:08:25;;;;;;;364.13;146.67;;;;;17.50;97322.00;;;;5024812;28;20267;-66
2023/10/10 07:11:20;;;;;;;366.93;149.13;;;;;17.60;97328.00;;;;5020965;28;20216;-66
2023/10/10 07:14:10;;;;;;;368.80;154.97;;;;;17.70;97327.00;;;;5028062;28;20664;-66
2023/10/10 07:17:00;;;;;;;365.93;159.83;;;;;17.70;97335.00;;;;5026136;28;20693;-66
2023/10/10 07:22:59;;;;;;;374.83;161.47;;;;;17.70;97368.00;;;;5020460;28;20221;-66
2023/10/10 07:25:59;;;;;;;374.03;158.17;;;;;17.70;97354.00;;;;5026814;28;20221;-66
2023/10/10 07:28:48;;;;;;;377.87;168.80;;;;;17.80;97359.00;;;;5027348;28;20220;-66
2023/10/10 07:31:40;;;;;;;368.07;157.67;;;;;17.90;97352.00;;;;5019049;28;20210;-66
2023/10/10 07:34:35;;;;;;;368.50;158.67;;;;;18.00;97357.00;;;;5023635;28;20195;-66
2023/10/10 07:37:27;;;;;;;375.47;163.17;;;;;18.20;97370.00;;;;5028428;28;20258;-66
2023/10/10 07:40:21;;;;;;;374.00;163.37;;;;;18.30;97354.00;;;;5026149;28;20205;-66
2023/10/10 07:43:12;;;;;;;371.27;166.20;;;;;18.50;97364.00;;;;5025694;28;20749;-66
2023/10/10 07:46:12;;;;;;;372.33;173.53;;;;;18.50;97374.00;;;;5021658;28;20228;-66
2023/10/10 07:49:02;;;;;;;367.20;162.67;;;;;18.50;97374.00;;;;5025376;28;20205;-66
2023/10/10 07:51:51;;;;;;;373.70;171.13;;;;;18.80;97366.00;;;;5022774;28;20202;-66
2023/10/10 07:54:43;;;;;;;374.03;182.93;;;;;18.70;97373.00;;;;5021048;28;20202;-65
2023/10/10 07:57:55;;;;;;;372.60;175.03;;;;;18.70;97378.00;;;;5025466;28;20212;-66
2023/10/10 08:00:44;;;;;;;369.20;167.67;;;;;18.80;97366.00;;;;5026968;28;20209;-67
2023/10/10 08:03:33;;;;;;;371.47;179.10;;;;;18.90;97371.00;;;;5023336;28;20208;-66
2023/10/10 08:06:22;;;;;;;368.00;171.60;;;;;19.10;97373.00;;;;5018162;28;20247;-66
2023/10/10 08:09:18;;;;;;;371.60;181.00;;;;;19.10;97378.00;;;;5022490;28;20566;-66
2023/10/10 08:12:07;;;;;;;373.07;180.97;;;;;18.90;97375.00;;;;5020524;28;20250;-66
2023/10/10 08:15:10;;;;;;;375.80;179.70;;;;;18.70;97368.00;;;;5018128;28;20194;-67
2023/10/10 08:18:01;;;;;;;371.17;177.37;;;;;18.80;97370.00;;;;5027957;28;20205;-66
2023/10/10 08:23:58;;;;;;;373.57;183.37;;;;;19.40;97367.00;;;;5027248;28;20566;-64
2023/10/10 08:26:51;;;;;;;370.80;180.70;;;;;19.60;97372.00;;;;5026374;28;20229;-66
2023/10/10 08:29:40;;;;;;;373.17;190.57;;;;;20.00;97378.00;;;;5029451;28;20213;-65
2023/10/10 08:32:30;;;;;;;371.23;190.07;;;;;19.60;97378.00;;;;5025609;28;20272;-65
2023/10/10 08:35:22;;;;;;;373.03;188.80;;;;;20.00;97373.00;;;;5027991;28;20292;-66
2023/10/10 08:38:13;;;;;;;373.20;195.63;;;;;20.00;97372.00;;;;5024453;28;20678;-66
2023/10/10 08:41:08;;;;;;;372.47;204.67;;;;;20.20;97369.00;;;;5023837;28;20594;-65
2023/10/10 08:44:01;;;;;;;379.23;211.67;;;;;20.60;97368.00;;;;5027411;28;20313;-65
2023/10/10 08:46:52;;;;;;;377.47;208.83;;;;;20.90;97386.00;;;;5026329;28;20228;-66
2023/10/10 08:49:41;;;;;;;380.23;217.23;;;;;20.80;97386.00;;;;5025506;28;20205;-66
2023/10/10 08:52:33;;;;;;;382.47;225.60;;;;;20.90;97375.00;;;;5019773;28;20208;-66
2023/10/10 08:55:26;;;;;;;380.87;222.47;;;;;21.00;97393.00;;;;5018662;28;20236;-65
2023/10/10 08:58:15;;;;;;;375.57;215.57;;;;;21.10;97375.00;;;;5021507;28;20201;-66
2023/10/10 09:01:05;;;;;;;375.77;223.27;;;;;21.40;97369.00;;;;5028405;28;20204;-65
2023/10/10 09:03:57;;;;;;;379.60;230.40;;;;;21.50;97367.00;;;;5028032;28;20244;-66
2023/10/10 09:06:58;;;;;;;386.50;241.27;;;;;22.10;97372.00;;;;5021371;28;20212;-66
2023/10/10 09:09:54;;;;;;;396.57;273.53;;;;;22.40;97370.00;;;;5026074;28;20279;-66
2023/10/10 09:12:56;;;;;;;388.77;258.87;;;;;22.20;97381.00;;;;5022870;28;20197;-65
2023/10/10 09:15:54;;;;;;;391.33;266.50;;;;;22.40;97379.00;;;;5017140;28;20690;-65
2023/10/10 09:18:44;;;;;;;383.93;256.07;;;;;22.70;97350.00;;;;5020517;28;20220;-65
2023/10/10 09:21:37;;;;;;;388.77;267.53;;;;;23.10;97360.00;;;;5022760;28;20212;-66
2023/10/10 09:24:29;;;;;;;385.07;268.13;;;;;23.40;97357.00;;;;5021316;28;20204;-65
2023/10/10 09:27:23;;;;;;;390.70;275.03;;;;;23.50;97364.00;;;;5022159;28;20212;-65
2023/10/10 09:30:15;;;;;;;388.93;285.70;;;;;24.00;97359.00;;;;5023236;28;20213;-65
2023/10/10 09:33:22;;;;;;;386.17;284.50;;;;;24.00;97362.00;;;;5018007;28;20193;-65
2023/10/10 09:36:15;;;;;;;390.27;294.43;;;;;24.30;97366.00;;;;5018564;28;20214;-66
2023/10/10 09:39:14;;;;;;;398.40;318.93;;;;;24.30;97369.00;;;;5019529;28;20216;-66
2023/10/10 09:42:22;;;;;;;408.27;332.27;;;;;24.40;97369.00;;;;5018152;28;20242;-66
2023/10/10 09:45:27;;;;;;;400.07;329.83;;;;;24.50;97362.00;;;;5022132;28;20725;-66
2023/10/10 09:48:27;;;;;;;397.93;320.17;;;;;25.10;97358.00;;;;5019272;28;20194;-66
2023/10/10 09:51:30;;;;;;;394.60;320.03;;;;;25.40;97354.00;;;;5020860;28;20255;-66
2023/10/10 09:54:25;;;;;;;401.27;333.17;;;;;25.80;97361.00;;;;5018086;28;20205;-66
2023/10/10 09:57:17;;;;;;;401.70;335.93;;;;;25.90;97377.00;;;;5019711;28;20216;-66
2023/10/10 10:00:13;;;;;;;406.80;346.07;;;;;25.10;97362.00;;;;5022961;28;20204;-66
2023/10/10 10:03:31;;;;;;;407.60;353.80;;;;;25.00;97356.00;;;;5017527;28;20445;-66
2023/10/10 10:06:38;;;;;;;407.30;360.40;;;;;24.80;97357.00;;;;5014949;28;20711;-66
2023/10/10 10:09:51;;;;;;;408.87;363.00;;;;;25.00;97347.00;;;;5017040;28;20287;-66
2023/10/10 10:13:13;;;;;;;409.77;364.60;;;;;25.50;97355.00;;;;5024051;28;20193;-66
2023/10/10 10:16:15;;;;;;;408.03;362.93;;;;;24.60;97361.00;;;;5002882;28;22099;-66
2023/10/10 10:19:14;;;;;;;412.20;367.00;;;;;25.90;97353.00;;;;5015084;28;20206;-66
2023/10/10 10:22:08;;;;;;;415.67;369.87;;;;;25.20;97376.00;;;;5013087;28;20206;-66
2023/10/10 10:25:21;;;;;;;435.80;389.20;;;;;25.10;97361.00;;;;5026210;28;20197;-65
2023/10/10 10:28:14;;;;;;;422.57;376.70;;;;;24.80;97354.00;;;;5024816;28;20197;-66
2023/10/10 10:31:08;;;;;;;439.67;393.40;;;;;25.30;97372.00;;;;5019839;28;20687;-66
2023/10/10 10:34:15;;;;;;;444.67;397.87;;;;;24.60;97378.00;;;;5024817;28;20198;-66
2023/10/10 10:37:12;;;;;;;425.93;380.30;;;;;23.90;97352.00;;;;5023022;28;20235;-66
2023/10/10 10:43:14;;;;;;;421.73;376.20;;;;;24.60;97365.00;;;;5023219;28;20225;-66
2023/10/10 10:46:14;;;;;;;422.50;377.03;;;;;26.30;97333.00;;;;5021372;28;20248;-66
2023/10/10 10:49:10;;;;;;;444.57;398.17;;;;;26.60;97375.00;;;;5029467;28;20603;-66
2023/10/10 10:52:14;;;;;;;454.90;407.60;;;;;26.40;97373.00;;;;5027273;28;20225;-66
2023/10/10 10:55:21;;;;;;;450.53;403.63;;;;;26.70;97372.00;;;;5031355;28;20568;-66
2023/10/10 10:58:20;;;;;;;464.83;418.00;;;;;26.30;97369.00;;;;5026762;28;20203;-66
2023/10/10 11:01:16;;;;;;;468.30;420.93;;;;;26.50;97358.00;;;;5026193;28;20205;-66
2023/10/10 11:04:05;;;;;;;476.40;428.97;;;;;27.40;97362.00;;;;5032865;28;20226;-66
2023/10/10 11:06:59;;;;;;;481.23;433.57;;;;;26.80;97363.00;;;;5028575;28;20269;-67
2023/10/10 11:09:54;;;;;;;482.53;434.63;;;;;25.30;97357.00;;;;5028142;28;20260;-66
2023/10/10 11:12:44;;;;;;;474.73;427.80;;;;;25.10;97360.00;;;;5021155;28;20206;-66
2023/10/10 11:15:37;;;;;;;472.57;425.10;;;;;26.00;97368.00;;;;5016932;28;20238;-66
2023/10/10 11:18:34;;;;;;;465.07;418.30;;;;;25.50;97380.00;;;;5025654;28;20215;-66
2023/10/10 11:21:27;;;;;;;460.33;413.13;;;;;25.70;97385.00;;;;5023376;28;20217;-66
2023/10/10 11:24:23;;;;;;;455.90;409.67;;;;;25.50;97390.00;;;;5020507;28;20231;-67
2023/10/10 11:27:21;;;;;;;441.03;395.33;;;;;25.30;97393.00;;;;5025473;28;20210;-66
2023/10/10 11:30:11;;;;;;;439.57;393.40;;;;;25.10;97386.00;;;;5021754;28;20213;-66
2023/10/10 11:33:17;;;;;;;446.17;400.10;;;;;24.70;97390.00;;;;5027685;28;20216;-66
2023/10/10 11:36:22;;;;;;;431.50;385.60;;;;;23.60;97394.00;;;;5021293;28;20249;-66
2023/10/10 11:39:31;;;;;;;422.13;376.17;;;;;23.60;97394.00;;;;5029227;28;20670;-66
2023/10/10 11:42:30;;;;;;;417.00;371.20;;;;;23.10;97380.00;;;;5027452;28;20555;-66
2023/10/10 11:45:19;;;;;;;406.53;354.60;;;;;22.60;97380.00;;;;5026932;28;20874;-66
2023/10/10 11:48:12;;;;;;;407.70;343.87;;;;;22.80;97382.00;;;;5027031;28;20197;-66
2023/10/10 11:51:01;;;;;;;405.70;329.23;;;;;22.40;97371.00;;;;5020149;28;20217;-66
2023/10/10 11:53:54;;;;;;;407.37;327.87;;;;;22.00;97372.00;;;;5026844;28;20194;-66
2023/10/10 11:56:46;;;;;;;400.40;317.33;;;;;22.60;97358.00;;;;5023988;28;20278;-66
2023/10/10 11:59:35;;;;;;;393.87;303.60;;;;;23.20;97370.00;;;;5023892;28;20198;-66
2023/10/10 12:02:29;;;;;;;398.87;300.33;;;;;23.90;97363.00;;;;5022556;28;20208;-66
2023/10/10 12:05:47;;;;;;;397.80;301.70;;;;;24.20;97329.00;;;;5018989;28;20234;-65
2023/10/10 12:08:38;;;;;;;399.07;311.70;;;;;25.30;97358.00;;;;5022889;28;20694;-66
2023/10/10 12:11:27;;;;;;;405.07;336.97;;;;;25.70;97350.00;;;;5022895;28;20198;-66
2023/10/10 12:14:19;;;;;;;406.17;344.20;;;;;26.90;97334.00;;;;5026467;28;20193;-66
2023/10/10 12:17:08;;;;;;;427.40;381.43;;;;;27.10;97337.00;;;;5031975;28;20220;-66
2023/10/10 12:19:57;;;;;;;450.40;403.67;;;;;27.80;97345.00;;;;5028140;28;20710;-66
2023/10/10 12:22:46;;;;;;;471.17;424.00;;;;;27.80;97359.00;;;;5022320;28;20212;-66
2023/10/10 12:25:37;;;;;;;499.97;450.97;;;;;27.10;97351.00;;;;5026220;28;20235;-66
2023/10/10 12:28:26;;;;;;;501.00;452.47;;;;;27.40;97346.00;;;;5018428;28;20698;-67
2023/10/10 12:31:16;;;;;;;514.23;465.63;;;;;27.40;97344.00;;;;5024837;28;20206;-66
2023/10/10 12:34:09;;;;;;;513.87;465.47;;;;;28.60;97352.00;;;;5024209;28;20209;-66
2023/10/10 12:36:59;;;;;;;530.67;481.23;;;;;26.30;97361.00;;;;5027409;28;20228;-66
2023/10/10 12:39:51;;;;;;;528.97;479.80;;;;;26.40;97364.00;;;;5028292;28;20210;-66
2023/10/10 12:42:40;;;;;;;513.77;465.37;;;;;26.40;97357.00;;;;5025660;28;20215;-66
2023/10/10 12:45:32;;;;;;;516.47;467.57;;;;;26.30;97375.00;;;;5026927;28;20236;-66
2023/10/10 12:48:23;;;;;;;498.23;449.97;;;;;25.70;97384.00;;;;5025475;28;20210;-66
2023/10/10 12:51:13;;;;;;;484.23;436.43;;;;;25.80;97382.00;;;;5049510;22;20770;-69
2023/10/10 12:54:05;;;;;;;486.80;438.83;;;;;25.50;97379.00;;;;5027593;28;20435;-69
2023/10/10 12:57:01;;;;;;;486.03;437.87;;;;;25.60;97363.00;;;;5026837;28;20770;-69
2023/10/10 12:59:51;;;;;;;474.60;427.07;;;;;26.00;97364.00;;;;5026587;28;20210;-69
2023/10/10 13:02:40;;;;;;;468.57;421.53;;;;;26.60;97356.00;;;;5027468;28;20644;-69
2023/10/10 13:05:30;;;;;;;473.67;426.13;;;;;26.60;97368.00;;;;5036272;28;20314;-71
2023/10/10 13:08:22;;;;;;;477.93;430.43;;;;;27.10;97340.00;;;;5028732;28;20265;-71
2023/10/10 13:11:14;;;;;;;484.43;436.57;;;;;27.10;97353.00;;;;5024769;28;20776;-71
2023/10/10 13:14:10;;;;;;;495.93;447.30;;;;;26.90;97339.00;;;;5025860;28;20201;-71
2023/10/10 13:20:04;;;;;;;505.50;456.83;;;;;26.50;97358.00;;;;5021609;28;20204;-70
2023/10/10 13:22:55;;;;;;;512.13;463.27;;;;;25.50;97349.00;;;;5022749;28;20207;-70
2023/10/10 13:25:44;;;;;;;499.23;450.87;;;;;26.70;97336.00;;;;5021372;28;20218;-70
2023/10/10 13:28:33;;;;;;;482.67;436.07;;;;;27.60;97340.00;;;;5038312;28;20614;-70
2023/10/10 13:31:24;;;;;;;491.83;444.93;;;;;27.30;97339.00;;;;5032151;28;20230;-71
2023/10/10 13:34:16;;;;;;;511.60;463.30;;;;;26.50;97360.00;;;;5032647;28;20297;-71
2023/10/10 13:37:07;;;;;;;517.23;468.93;;;;;26.70;97357.00;;;;5027396;28;20208;-70
2023/10/10 13:39:59;;;;;;;522.23;473.17;;;;;26.50;97346.00;;;;5034950;28;20694;-71
2023/10/10 13:42:49;;;;;;;511.57;463.23;;;;;27.00;97333.00;;;;5023076;28;20226;-70
2023/10/10 13:45:39;;;;;;;511.53;462.87;;;;;26.40;97325.00;;;;5031601;28;20223;-70
2023/10/10 13:48:30;;;;;;;497.97;450.57;;;;;27.20;97340.00;;;;5027020;28;20208;-70
2023/10/10 13:51:19;;;;;;;491.27;444.20;;;;;27.80;97320.00;;;;5030480;28;20248;-71
2023/10/10 13:54:08;;;;;;;505.07;457.70;;;;;27.90;97331.00;;;;5028817;28;20196;-70
2023/10/10 13:57:00;;;;;;;523.00;473.77;;;;;27.60;97340.00;;;;5025929;28;20264;-70
2023/10/10 13:59:49;;;;;;;523.63;475.00;;;;;26.70;97338.00;;;;5021855;28;20215;-70
2023/10/10 14:02:39;;;;;;;518.93;470.63;;;;;26.20;97341.00;;;;5031316;28;20696;-70
2023/10/10 14:05:31;;;;;;;513.60;465.17;;;;;26.70;97342.00;;;;5026880;28;20231;-70
2023/10/10 14:08:20;;;;;;;490.83;443.57;;;;;26.50;97355.00;;;;5028960;28;20697;-70
2023/10/10 14:11:09;;;;;;;493.93;446.03;;;;;26.40;97336.00;;;;5020883;28;20235;-70
2023/10/10 14:14:00;;;;;;;491.10;443.13;;;;;26.20;97326.00;;;;5026856;28;20224;-70
2023/10/10 14:16:50;;;;;;;487.83;440.30;;;;;25.00;97312.00;;;;5027278;28;20206;-69
2023/10/10 14:19:40;;;;;;;483.97;436.67;;;;;26.00;97329.00;;;;5020864;28;20695;-70
2023/10/10 14:22:29;;;;;;;481.27;433.73;;;;;25.90;97322.00;;;;5021349;28;20226;-70
2023/10/10 14:25:22;;;;;;;461.03;414.80;;;;;26.60;97326.00;;;;5020660;28;20705;-70
2023/10/10 14:28:16;;;;;;;474.77;427.90;;;;;26.80;97323.00;;;;5022715;28;20312;-71
2023/10/10 14:31:11;;;;;;;489.00;440.70;;;;;26.80;97301.00;;;;5030300;28;20242;-70
2023/10/10 14:34:01;;;;;;;491.47;443.13;;;;;28.00;97301.00;;;;5027915;28;20204;-70
2023/10/10 14:36:51;;;;;;;507.13;459.07;;;;;28.50;97311.00;;;;5024160;28;20250;-70
2023/10/10 14:39:45;;;;;;;532.13;483.10;;;;;28.30;97308.00;;;;5022023;28;20219;-71
2023/10/10 14:42:34;;;;;;;556.13;506.73;;;;;28.20;97301.00;;;;5027472;28;20243;-69
2023/10/10 14:45:24;;;;;;;573.40;523.10;;;;;29.40;97305.00;;;;5022571;28;20220;-70
2023/10/10 14:48:18;;;;;;;581.43;531.53;;;;;29.30;97312.00;;;;5037124;28;20204;-71
2023/10/10 14:51:08;;;;;;;602.50;551.97;;;;;29.10;97304.00;;;;5024753;28;20271;-71
2023/10/10 14:53:57;;;;;;;603.53;552.73;;;;;29.20;97297.00;;;;5023332;28;20210;-69
2023/10/10 14:56:46;;;;;;;605.53;554.87;;;;;28.30;97287.00;;;;5018976;28;20193;-70
2023/10/10 14:59:35;;;;;;;607.33;556.67;;;;;27.90;97292.00;;;;5024267;28;20279;-70
2023/10/10 15:02:26;;;;;;;614.47;563.53;;;;;27.50;97296.00;;;;5022433;28;20226;-70
2023/10/10 15:05:17;;;;;;;608.37;557.73;;;;;28.50;97304.00;;;;5033189;28;20227;-70
2023/10/10 15:08:06;;;;;;;631.40;579.27;;;;;28.40;97310.00;;;;5020031;28;20208;-71
2023/10/10 15:10:55;;;;;;;616.60;565.60;;;;;29.70;97333.00;;;;5024768;28;20228;-70
2023/10/10 15:13:44;;;;;;;617.90;567.47;;;;;29.10;97341.00;;;;5023432;28;20197;-69
2023/10/10 15:16:35;;;;;;;601.10;550.67;;;;;28.50;97349.00;;;;5030036;28;20677;-70
2023/10/10 15:19:25;;;;;;;594.27;544.40;;;;;27.40;97354.00;;;;5026623;28;20262;-70
2023/10/10 15:22:16;;;;;;;574.07;524.37;;;;;26.10;97349.00;;;;5028212;28;20362;-70
2023/10/10 15:25:06;;;;;;;557.17;507.20;;;;;26.20;97347.00;;;;5024863;28;20230;-70
2023/10/10 15:27:56;;;;;;;539.10;489.70;;;;;26.10;97356.00;;;;5031662;28;20217;-70
2023/10/10 15:30:45;;;;;;;528.20;478.50;;;;;25.90;97354.00;;;;5024977;28;20201;-70
2023/10/10 15:33:34;;;;;;;496.93;448.77;;;;;25.70;97357.00;;;;5026911;28;20214;-70
2023/10/10 15:36:24;;;;;;;488.70;440.80;;;;;25.30;97360.00;;;;5028077;28;20209;-70
2023/10/10 15:39:15;;;;;;;476.87;429.20;;;;;25.20;97360.00;;;;5030697;28;20232;-69
2023/10/10 15:42:04;;;;;;;465.83;417.97;;;;;24.90;97366.00;;;;5026129;28;20410;-71
2023/10/10 15:44:53;;;;;;;438.20;391.87;;;;;24.90;97360.00;;;;5030501;28;20198;-71